createdAt,value
2024-03-01T00:02:26.518Z,13.50
2024-03-01T00:04:53.280Z,13.43
2024-03-01T00:07:20.025Z,13.25
2024-03-01T00:09:46.716Z,16.45
2024-03-01T00:12:13.532Z,14.88
2024-03-01T00:14:40.235Z,13.70
2024-03-01T00:17:06.945Z,12.95
2024-03-01T00:19:33.664Z,16.17
2024-03-01T00:22:00.453Z,13.82
2024-03-01T00:24:27.198Z,14.98
2024-03-01T00:26:53.912Z,12.63
2024-03-01T00:29:20.608Z,11.25
2024-03-01T00:31:47.276Z,15.77
2024-03-01T00:34:14.080Z,16.70
2024-03-01T00:36:40.838Z,16.13
2024-03-01T00:39:08.534Z,12.93
2024-03-01T00:41:35.359Z,15.50
2024-03-01T00:44:02.730Z,13.90
2024-03-01T00:46:29.692Z,13.57
2024-03-01T00:48:56.653Z,16.75
2024-03-01T00:51:23.791Z,14.10
2024-03-01T00:53:51.342Z,12.85
2024-03-01T00:56:18.228Z,15.07
2024-03-01T00:58:45.233Z,12.35
2024-03-01T01:01:12.828Z,13.18
2024-03-01T01:03:39.813Z,12.88
2024-03-01T01:06:06.549Z,12.82
2024-03-01T01:08:33.341Z,12.20
2024-03-01T01:11:00.119Z,11.63
2024-03-01T01:13:28.324Z,10.32
2024-03-01T01:15:55.245Z,11.55
2024-03-01T01:18:22.058Z,11.35
2024-03-01T01:20:48.869Z,12.10
2024-03-01T01:23:15.622Z,10.00
2024-03-01T01:25:45.043Z,8.43
2024-03-01T01:28:11.797Z,10.65
2024-03-01T01:30:38.890Z,10.90
2024-03-01T01:33:06.609Z,10.52
2024-03-01T01:35:34.251Z,9.90
2024-03-01T01:38:01.104Z,11.10
2024-03-01T01:40:46.716Z,10.27
2024-03-01T01:43:13.652Z,9.50
2024-03-01T01:45:40.516Z,9.32
2024-03-01T01:48:07.587Z,8.90
2024-03-01T01:50:34.642Z,9.25
2024-03-01T01:53:07.729Z,8.63
2024-03-01T01:55:41.776Z,9.85
2024-03-01T01:58:08.651Z,7.63
2024-03-01T02:00:35.437Z,9.00
2024-03-01T02:03:04.070Z,9.52
2024-03-01T02:05:30.955Z,8.40
2024-03-01T02:07:59.170Z,8.75
2024-03-01T02:10:26.059Z,8.95
2024-03-01T02:13:02.380Z,6.82
2024-03-01T02:15:30.117Z,8.13
2024-03-01T02:17:58.719Z,10.32
2024-03-01T02:20:28.858Z,9.10
2024-03-01T02:22:59.696Z,8.65
2024-03-01T02:25:26.593Z,9.75
2024-03-01T02:27:53.482Z,9.07
2024-03-01T02:30:20.242Z,9.50
2024-03-01T02:32:47.479Z,8.68
2024-03-01T02:35:14.440Z,8.10
2024-03-01T02:37:44.096Z,9.80
2024-03-01T02:40:11.848Z,8.13
2024-03-01T02:42:38.581Z,8.48
2024-03-01T02:45:05.613Z,11.10
2024-03-01T02:47:32.401Z,9.65
2024-03-01T02:49:59.539Z,8.93
2024-03-01T02:52:26.628Z,7.95
2024-03-01T02:54:53.359Z,9.70
2024-03-01T02:57:20.104Z,8.68
2024-03-01T02:59:47.013Z,9.43
2024-03-01T03:02:13.773Z,8.15
2024-03-01T03:04:40.541Z,8.70
2024-03-01T03:07:10.810Z,8.55
2024-03-01T03:09:47.446Z,18.27
2024-03-01T03:12:14.307Z,9.93
2024-03-01T03:14:41.182Z,11.07
2024-03-01T03:17:08.264Z,8.00
2024-03-01T03:19:36.541Z,10.07
2024-03-01T03:22:10.339Z,12.32
2024-03-01T03:24:40.514Z,11.40
2024-03-01T03:27:07.460Z,10.05
2024-03-01T03:29:34.859Z,9.73
2024-03-01T03:32:01.718Z,10.80
2024-03-01T03:34:28.487Z,9.90
2024-03-01T03:36:55.270Z,10.23
2024-03-01T03:39:21.998Z,9.35
2024-03-01T03:41:48.770Z,9.88
2024-03-01T03:44:15.560Z,11.20
2024-03-01T03:46:42.262Z,9.52
2024-03-01T03:49:12.126Z,10.02
2024-03-01T03:51:38.865Z,10.02
2024-03-01T03:54:05.975Z,9.23
2024-03-01T03:56:33.258Z,9.60
2024-03-01T03:59:00.463Z,11.35
2024-03-01T04:01:28.037Z,10.52
2024-03-01T04:03:55.046Z,10.70
2024-03-01T04:06:21.820Z,10.57
2024-03-01T04:08:48.557Z,10.98
2024-03-01T04:11:15.517Z,11.00
2024-03-01T04:13:42.263Z,10.32
2024-03-01T04:16:09.823Z,11.35
2024-03-01T04:18:38.932Z,11.13
2024-03-01T04:21:08.939Z,10.30
2024-03-01T04:23:35.701Z,11.50
2024-03-01T04:26:08.867Z,12.20
2024-03-01T04:28:39.299Z,10.93
2024-03-01T04:31:07.517Z,12.05
2024-03-01T04:33:35.870Z,10.93
2024-03-01T04:36:03.115Z,11.35
2024-03-01T04:38:29.820Z,12.25
2024-03-01T04:40:56.554Z,15.45
2024-03-01T04:43:23.334Z,17.33
2024-03-01T04:45:50.581Z,16.17
2024-03-01T04:48:17.350Z,18.15
2024-03-01T04:50:44.121Z,17.20
2024-03-01T04:53:10.875Z,16.85
2024-03-01T04:55:37.646Z,16.40
2024-03-01T04:58:04.582Z,16.20
2024-03-01T05:00:31.337Z,31.30
2024-03-01T05:02:58.060Z,15.93
2024-03-01T05:05:26.225Z,13.80
2024-03-01T05:07:52.930Z,17.45
2024-03-01T05:10:25.911Z,15.30
2024-03-01T05:12:53.046Z,14.55
2024-03-01T05:15:19.783Z,15.85
2024-03-01T05:17:46.923Z,16.75
2024-03-01T05:20:14.741Z,16.77
2024-03-01T05:22:44.792Z,14.80
2024-03-01T05:25:18.881Z,14.77
2024-03-01T05:27:50.206Z,15.80
2024-03-01T05:30:31.592Z,14.77
2024-03-01T05:33:04.902Z,15.18
2024-03-01T05:35:31.830Z,15.07
2024-03-01T05:38:00.024Z,12.27
2024-03-01T05:40:27.290Z,12.07
2024-03-01T05:42:55.327Z,11.65
2024-03-01T05:45:22.205Z,11.40
2024-03-01T05:47:49.752Z,11.80
2024-03-01T05:50:16.776Z,8.05
2024-03-01T05:52:44.885Z,10.70
2024-03-01T05:55:15.552Z,8.75
2024-03-01T05:57:42.797Z,9.88
2024-03-01T06:00:26.384Z,8.98
2024-03-01T06:02:57.149Z,9.57
2024-03-01T06:05:25.354Z,9.70
2024-03-01T06:07:52.111Z,7.15
2024-03-01T06:10:18.912Z,9.50
2024-03-01T06:12:45.648Z,12.73
2024-03-01T06:15:12.569Z,8.73
2024-03-01T06:17:39.244Z,8.63
2024-03-01T06:20:06.429Z,8.30
2024-03-01T06:22:33.197Z,9.77
2024-03-01T06:25:00.330Z,8.68
2024-03-01T06:27:27.145Z,8.85
2024-03-01T06:29:54.052Z,8.48
2024-03-01T06:32:21.032Z,8.57
2024-03-01T06:34:51.936Z,7.50
2024-03-01T06:37:19.986Z,8.80
2024-03-01T06:39:46.990Z,8.93
2024-03-01T06:42:13.843Z,11.35
2024-03-01T06:44:40.592Z,13.90
2024-03-01T06:47:14.863Z,14.48
2024-03-01T06:49:42.537Z,13.00
2024-03-01T06:52:10.641Z,14.68
2024-03-01T06:54:37.377Z,14.00
2024-03-01T06:57:04.727Z,12.95
2024-03-01T06:59:31.411Z,17.63
2024-03-01T07:01:58.225Z,8.70
2024-03-01T07:04:25.042Z,8.38
2024-03-01T07:06:51.915Z,7.70
2024-03-01T07:09:20.745Z,8.25
2024-03-01T07:11:47.737Z,7.53
2024-03-01T07:14:14.407Z,8.60
2024-03-01T07:16:41.617Z,9.02
2024-03-01T07:19:08.405Z,7.95
2024-03-01T07:21:37.184Z,9.07
2024-03-01T07:24:05.292Z,10.38
2024-03-01T07:26:32.224Z,7.50
2024-03-01T07:28:59.032Z,12.35
2024-03-01T07:31:25.847Z,7.13
2024-03-01T07:33:52.887Z,7.43
2024-03-01T07:36:19.657Z,7.68
2024-03-01T07:38:46.638Z,7.68
2024-03-01T07:41:13.316Z,5.90
2024-03-01T07:43:40.227Z,7.15
2024-03-01T07:46:07.092Z,6.60
2024-03-01T07:48:34.316Z,8.43
2024-03-01T07:51:01.211Z,7.57
2024-03-01T07:53:29.368Z,7.53
2024-03-01T07:55:56.371Z,5.63
2024-03-01T07:58:24.253Z,6.43
2024-03-01T08:00:51.100Z,6.88
2024-03-01T08:03:17.849Z,6.93
2024-03-01T08:05:44.912Z,7.25
2024-03-01T08:08:11.740Z,7.45
2024-03-01T08:10:45.757Z,7.63
2024-03-01T08:13:14.499Z,8.10
2024-03-01T08:15:42.210Z,7.95
2024-03-01T08:18:17.307Z,6.45
2024-03-01T08:20:53.098Z,5.07
2024-03-01T08:23:19.771Z,7.13
2024-03-01T08:25:47.044Z,6.57
2024-03-01T08:28:21.178Z,6.22
2024-03-01T08:30:47.939Z,6.97
2024-03-01T08:33:19.200Z,7.30
2024-03-01T08:35:47.186Z,7.50
2024-03-01T08:38:45.015Z,7.07
2024-03-01T08:41:12.961Z,7.63
2024-03-01T08:43:41.235Z,6.93
2024-03-01T08:46:22.973Z,6.72
2024-03-01T08:48:49.720Z,6.55
2024-03-01T08:51:17.835Z,6.80
2024-03-01T08:54:04.571Z,7.55
2024-03-01T08:56:33.967Z,7.55
2024-03-01T08:59:01.994Z,7.10
2024-03-01T09:01:45.381Z,6.68
2024-03-01T09:04:14.226Z,7.40
2024-03-01T09:06:41.720Z,6.70
2024-03-01T09:09:09.690Z,8.00
2024-03-01T09:11:37.267Z,8.18
2024-03-01T09:14:05.621Z,9.25
2024-03-01T09:16:33.084Z,6.22
2024-03-01T09:18:59.950Z,8.18
2024-03-01T09:21:29.464Z,7.80
2024-03-01T09:23:56.452Z,5.63
2024-03-01T09:26:23.275Z,6.88
2024-03-01T09:28:49.965Z,6.50
2024-03-01T09:31:16.724Z,6.50
2024-03-01T09:33:43.586Z,7.75
2024-03-01T09:36:17.650Z,6.55
2024-03-01T09:38:44.383Z,6.80
2024-03-01T09:41:28.493Z,7.93
2024-03-01T09:44:04.300Z,6.43
2024-03-01T09:46:42.203Z,7.65
2024-03-01T09:49:30.784Z,6.72
2024-03-01T09:52:16.148Z,5.43
2024-03-01T09:55:08.833Z,4.68
2024-03-01T09:57:59.905Z,4.72
2024-03-01T10:00:34.671Z,5.80
2024-03-01T10:03:07.519Z,5.53
2024-03-01T10:05:54.941Z,5.18
2024-03-01T10:09:00.166Z,4.85
2024-03-01T10:11:41.862Z,6.00
2024-03-01T10:14:33.574Z,4.50
2024-03-01T10:17:18.752Z,5.85
2024-03-01T10:19:58.057Z,6.35
2024-03-01T10:22:35.024Z,5.30
2024-03-01T10:25:07.027Z,5.45
2024-03-01T10:27:41.035Z,6.40
2024-03-01T10:30:19.506Z,6.40
2024-03-01T10:33:14.037Z,5.82
2024-03-01T10:35:57.990Z,5.75
2024-03-01T10:38:46.188Z,5.65
2024-03-01T10:41:31.789Z,6.57
2024-03-01T10:44:14.188Z,6.85
2024-03-01T10:46:49.829Z,5.43
2024-03-01T10:49:26.445Z,5.63
2024-03-01T10:52:10.697Z,6.18
2024-03-01T10:54:37.839Z,8.02
2024-03-01T10:57:08.888Z,7.25
2024-03-01T10:59:57.128Z,6.32
2024-03-01T11:02:38.342Z,7.65
2024-03-01T11:05:18.565Z,5.88
2024-03-01T11:07:54.503Z,5.53
2024-03-01T11:10:32.435Z,5.35
2024-03-01T11:13:06.220Z,7.57
2024-03-01T11:15:33.249Z,6.50
2024-03-01T11:18:11.078Z,6.85
2024-03-01T11:20:43.813Z,6.35
2024-03-01T11:23:15.762Z,6.22
2024-03-01T11:25:49.666Z,6.03
2024-03-01T11:28:24.834Z,6.20
2024-03-01T11:33:35.198Z,6.97
2024-03-01T11:36:42.340Z,6.97
2024-03-01T11:39:24.314Z,5.30
2024-03-01T11:42:13.441Z,6.63
2024-03-01T11:45:05.114Z,5.10
2024-03-01T11:47:56.317Z,5.43
2024-03-01T11:50:33.491Z,4.78
2024-03-01T11:53:07.450Z,5.85
2024-03-01T11:56:12.602Z,5.95
2024-03-01T11:59:08.553Z,5.35
2024-03-01T12:01:45.821Z,5.05
2024-03-01T12:04:26.002Z,6.20
2024-03-01T12:07:20.667Z,4.95
2024-03-01T12:10:04.184Z,6.75
2024-03-01T12:12:49.370Z,5.72
2024-03-01T12:15:22.480Z,5.25
2024-03-01T12:18:06.626Z,5.80
2024-03-01T12:20:37.154Z,5.20
2024-03-01T12:23:32.902Z,5.47
2024-03-01T12:26:00.728Z,6.13
2024-03-01T12:29:06.366Z,4.63
2024-03-01T12:31:49.011Z,5.82
2024-03-01T12:34:27.929Z,5.20
2024-03-01T12:36:59.820Z,5.47
2024-03-01T12:39:28.829Z,6.80
2024-03-01T12:42:25.755Z,7.82
2024-03-01T12:45:13.503Z,7.97
2024-03-01T12:47:47.347Z,8.90
2024-03-01T12:50:23.078Z,8.27
2024-03-01T12:53:20.876Z,11.45
2024-03-01T12:56:06.948Z,7.63
2024-03-01T12:58:42.869Z,5.18
2024-03-01T13:01:33.344Z,7.13
2024-03-01T13:04:18.918Z,5.68
2024-03-01T13:06:47.239Z,6.00
2024-03-01T13:09:20.616Z,6.43
2024-03-01T13:11:51.057Z,5.63
2024-03-01T13:14:37.318Z,7.72
2024-03-01T13:17:29.014Z,6.68
2024-03-01T13:20:24.660Z,6.78
2024-03-01T13:22:55.232Z,6.15
2024-03-01T13:25:27.777Z,6.55
2024-03-01T13:28:09.511Z,5.88
2024-03-01T13:30:38.347Z,6.78
2024-03-01T13:33:22.266Z,6.35
2024-03-01T13:35:49.579Z,5.45
2024-03-01T13:38:44.419Z,6.50
2024-03-01T13:41:19.051Z,8.98
2024-03-01T13:43:52.729Z,6.18
2024-03-01T13:46:54.353Z,10.13
2024-03-01T13:49:25.566Z,6.68
2024-03-01T13:51:52.956Z,7.57
2024-03-01T13:54:22.151Z,9.55
2024-03-01T13:56:51.032Z,7.03
2024-03-01T13:59:18.807Z,7.15
2024-03-01T14:01:46.127Z,7.28
2024-03-01T14:04:14.418Z,7.50
2024-03-01T14:06:48.193Z,6.55
2024-03-01T14:09:15.445Z,6.95
2024-03-01T14:11:43.892Z,6.22
2024-03-01T14:14:12.113Z,6.88
2024-03-01T14:16:39.334Z,6.03
2024-03-01T14:19:07.233Z,6.38
2024-03-01T14:21:34.003Z,5.88
2024-03-01T14:24:01.710Z,5.05
2024-03-01T14:26:28.469Z,6.18
2024-03-01T14:28:55.241Z,5.78
2024-03-01T14:31:22.045Z,5.65
2024-03-01T14:34:00.105Z,6.53
2024-03-01T14:36:28.291Z,5.90
2024-03-01T14:38:58.541Z,6.05
2024-03-01T14:41:41.501Z,8.55
2024-03-01T14:44:09.268Z,10.23
2024-03-01T14:46:41.120Z,7.15
2024-03-01T14:49:18.470Z,6.38
2024-03-01T14:51:53.707Z,8.43
2024-03-01T14:57:09.160Z,7.18
2024-03-01T14:59:54.336Z,7.53
2024-03-01T15:02:21.101Z,5.70
2024-03-01T15:04:48.244Z,6.90
2024-03-01T15:07:16.130Z,6.68
2024-03-01T15:09:46.372Z,6.13
2024-03-01T15:12:13.990Z,6.78
2024-03-01T15:14:59.240Z,6.53
2024-03-01T15:17:27.918Z,11.05
2024-03-01T15:19:55.528Z,6.10
2024-03-01T15:22:23.444Z,6.30
2024-03-01T15:24:52.981Z,6.75
2024-03-01T15:27:26.729Z,6.45
2024-03-01T15:29:53.441Z,6.70
2024-03-01T15:32:20.156Z,7.22
2024-03-01T15:34:47.157Z,7.53
2024-03-01T15:37:13.977Z,6.97
2024-03-01T15:39:40.718Z,7.18
2024-03-01T15:42:08.688Z,5.47
2024-03-01T15:44:35.380Z,5.50
2024-03-01T15:47:02.195Z,4.78
2024-03-01T15:49:29.039Z,6.25
2024-03-01T15:51:55.780Z,7.35
2024-03-01T15:54:22.521Z,5.93
2024-03-01T15:56:49.335Z,9.63
2024-03-01T15:59:16.037Z,7.65
2024-03-01T16:01:42.838Z,6.60
2024-03-01T16:04:09.687Z,7.28
2024-03-01T16:06:36.454Z,7.35
2024-03-01T16:09:06.453Z,6.07
2024-03-01T16:11:33.170Z,6.68
2024-03-01T16:14:00.791Z,10.27
2024-03-01T16:16:27.610Z,6.90
2024-03-01T16:18:54.326Z,6.55
2024-03-01T16:21:21.065Z,6.82
2024-03-01T16:23:51.730Z,6.72
2024-03-01T16:26:19.458Z,5.75
2024-03-01T16:28:52.307Z,6.15
2024-03-01T16:31:19.055Z,6.15
2024-03-01T16:33:45.873Z,7.43
2024-03-01T16:36:19.458Z,6.53
2024-03-01T16:38:46.669Z,7.00
2024-03-01T16:41:33.017Z,6.53
2024-03-01T16:44:03.006Z,10.10
2024-03-01T16:46:35.554Z,7.32
2024-03-01T16:49:04.246Z,7.15
2024-03-01T16:51:41.874Z,7.78
2024-03-01T16:54:33.328Z,6.38
2024-03-01T16:57:10.636Z,6.50
2024-03-01T16:59:38.248Z,5.25
2024-03-01T17:02:06.765Z,7.40
2024-03-01T17:04:36.792Z,6.25
2024-03-01T17:07:04.525Z,7.13
2024-03-01T17:09:32.581Z,5.88
2024-03-01T17:11:59.382Z,6.40
2024-03-01T17:14:26.647Z,6.90
2024-03-01T17:16:55.120Z,5.43
2024-03-01T17:19:28.098Z,6.75
2024-03-01T17:22:02.065Z,7.88
2024-03-01T17:24:29.496Z,8.57
2024-03-01T17:26:59.325Z,11.43
2024-03-01T17:29:26.652Z,9.07
2024-03-01T17:31:53.438Z,6.68
2024-03-01T17:34:20.461Z,7.63
2024-03-01T17:36:47.176Z,12.80
2024-03-01T17:39:13.959Z,6.93
2024-03-01T17:41:41.096Z,6.28
2024-03-01T17:44:07.845Z,7.25
2024-03-01T17:46:34.774Z,6.93
2024-03-01T17:49:01.853Z,8.32
2024-03-01T17:51:29.631Z,5.43
2024-03-01T17:53:56.761Z,7.25
2024-03-01T17:56:23.539Z,13.20
2024-03-01T17:58:50.215Z,9.20
2024-03-01T18:01:17.115Z,8.45
2024-03-01T18:03:43.911Z,26.23
2024-03-01T18:06:10.599Z,8.30
2024-03-01T18:08:37.680Z,7.63
2024-03-01T18:11:04.698Z,8.02
2024-03-01T18:13:31.535Z,8.00
2024-03-01T18:15:58.383Z,7.65
2024-03-01T18:18:25.489Z,31.13
2024-03-01T18:20:52.379Z,8.52
2024-03-01T18:23:19.175Z,8.05
2024-03-01T18:25:46.115Z,10.25
2024-03-01T18:28:12.901Z,6.65
2024-03-01T18:30:39.734Z,7.22
2024-03-01T18:33:06.486Z,11.23
2024-03-01T18:35:33.279Z,7.93
2024-03-01T18:38:00.097Z,7.65
2024-03-01T18:40:26.875Z,7.28
2024-03-01T18:43:12.073Z,6.85
2024-03-01T18:45:38.824Z,6.00
2024-03-01T18:48:06.483Z,7.80
2024-03-01T18:50:33.668Z,7.80
2024-03-01T18:53:02.405Z,8.20
2024-03-01T18:55:29.290Z,6.88
2024-03-01T18:57:56.068Z,11.20
2024-03-01T19:00:23.070Z,7.97
2024-03-01T19:02:50.166Z,8.75
2024-03-01T19:05:17.745Z,7.03
2024-03-01T19:07:44.888Z,12.23
2024-03-01T19:10:11.814Z,15.07
2024-03-01T19:12:38.620Z,7.82
2024-03-01T19:15:08.265Z,8.10
2024-03-01T19:17:34.963Z,8.35
2024-03-01T19:20:01.799Z,6.70
2024-03-01T19:22:28.640Z,7.65
2024-03-01T19:24:56.078Z,9.05
2024-03-01T19:27:22.943Z,6.85
2024-03-01T19:30:08.273Z,8.60
2024-03-01T19:32:35.032Z,8.50
2024-03-01T19:35:01.821Z,6.68
2024-03-01T19:37:28.567Z,7.35
2024-03-01T19:39:55.425Z,7.05
2024-03-01T19:42:22.401Z,8.15
2024-03-01T19:44:49.081Z,8.95
2024-03-01T19:47:15.899Z,7.85
2024-03-01T19:49:42.950Z,7.00
2024-03-01T19:52:12.972Z,7.75
2024-03-01T19:54:40.027Z,8.07
2024-03-01T19:57:06.743Z,7.75
2024-03-01T19:59:34.169Z,8.30
2024-03-01T20:02:00.856Z,8.75
2024-03-01T20:04:27.695Z,9.38
2024-03-01T20:06:54.583Z,8.95
2024-03-01T20:09:21.353Z,8.75
2024-03-01T20:11:50.480Z,8.43
2024-03-01T20:14:17.339Z,8.23
2024-03-01T20:16:44.045Z,7.75
2024-03-01T20:19:10.717Z,7.63
2024-03-01T20:21:37.784Z,7.60
2024-03-01T20:24:04.615Z,9.13
2024-03-01T20:26:31.297Z,8.77
2024-03-01T20:28:58.774Z,8.05
2024-03-01T20:31:26.419Z,6.68
2024-03-01T20:33:53.317Z,6.93
2024-03-01T20:36:20.069Z,7.32
2024-03-01T20:38:46.849Z,8.48
2024-03-01T20:41:13.598Z,8.77
2024-03-01T20:43:40.413Z,7.43
2024-03-01T20:46:08.445Z,7.18
2024-03-01T20:48:36.151Z,7.30
2024-03-01T20:51:02.856Z,9.75
2024-03-01T20:53:31.259Z,7.22
2024-03-01T20:55:59.299Z,8.55
2024-03-01T20:58:26.103Z,7.80
2024-03-01T21:00:52.858Z,7.93
2024-03-01T21:03:19.557Z,7.97
2024-03-01T21:05:46.215Z,8.07
2024-03-01T21:08:12.899Z,7.38
2024-03-01T21:10:39.725Z,8.93
2024-03-01T21:13:06.583Z,7.78
2024-03-01T21:15:33.386Z,7.68
2024-03-01T21:18:00.279Z,7.65
2024-03-01T21:20:27.049Z,7.10
2024-03-01T21:22:54.443Z,7.05
2024-03-01T21:25:23.709Z,7.65
2024-03-01T21:27:54.060Z,7.65
2024-03-01T21:30:21.280Z,7.80
2024-03-01T21:32:48.119Z,11.23
2024-03-01T21:35:14.858Z,9.85
2024-03-01T21:37:41.631Z,8.65
2024-03-01T21:40:19.822Z,9.93
2024-03-01T21:42:46.574Z,9.32
2024-03-01T21:45:13.996Z,9.48
2024-03-01T21:47:40.876Z,10.38
2024-03-01T21:50:08.136Z,9.30
2024-03-01T21:52:34.862Z,9.07
2024-03-01T21:55:01.702Z,10.57
2024-03-01T21:57:28.600Z,9.13
2024-03-01T21:59:56.892Z,7.95
2024-03-01T22:02:23.593Z,8.90
2024-03-01T22:04:50.283Z,9.18
2024-03-01T22:07:16.990Z,8.65
2024-03-01T22:09:43.794Z,8.63
2024-03-01T22:12:10.662Z,8.60
2024-03-01T22:14:37.349Z,9.23
2024-03-01T22:17:04.219Z,9.82
2024-03-01T22:19:32.868Z,9.07
2024-03-01T22:21:59.682Z,9.02
2024-03-01T22:24:26.472Z,8.95
2024-03-01T22:26:53.602Z,8.15
2024-03-01T22:29:20.353Z,9.23
2024-03-01T22:31:47.058Z,8.93
2024-03-01T22:34:13.975Z,9.00
2024-03-01T22:36:40.767Z,7.80
2024-03-01T22:39:07.621Z,8.73
2024-03-01T22:41:34.410Z,8.30
2024-03-01T22:44:01.117Z,8.95
2024-03-01T22:46:28.368Z,7.22
2024-03-01T22:48:55.924Z,11.07
2024-03-01T22:51:22.975Z,11.98
2024-03-01T22:53:49.843Z,7.63
2024-03-01T22:56:20.852Z,8.32
2024-03-01T22:58:50.489Z,8.75
2024-03-01T23:01:27.915Z,8.15
2024-03-01T23:03:56.074Z,8.15
2024-03-01T23:06:27.729Z,8.38
2024-03-01T23:09:00.872Z,9.70
2024-03-01T23:11:37.675Z,8.05
2024-03-01T23:14:08.594Z,9.57
2024-03-01T23:16:35.950Z,9.05
2024-03-01T23:19:02.746Z,8.98
2024-03-01T23:21:29.971Z,8.55
2024-03-01T23:23:58.514Z,8.18
2024-03-01T23:26:25.437Z,9.10
2024-03-01T23:28:52.173Z,8.52
2024-03-01T23:31:18.882Z,9.60
2024-03-01T23:33:47.727Z,8.85
2024-03-01T23:36:15.128Z,8.70
2024-03-01T23:38:41.853Z,8.93
2024-03-01T23:41:10.159Z,9.07
2024-03-01T23:43:36.932Z,8.52
2024-03-01T23:46:03.752Z,7.95
2024-03-01T23:48:30.522Z,9.43
2024-03-01T23:50:59.812Z,9.05
2024-03-01T23:53:26.921Z,8.65
2024-03-01T23:55:54.861Z,7.97
2024-03-01T23:58:22.088Z,9.20
